FW0888 Weather Reports


Display with metric or nautical units.
time (UTC)temp
F
wind
direction
speed
MPH
gust
MPH
rain 1hr
in
rain 24hr
in
rain mn
in
humidity
%
barometer
mb
20181114050344 28 253 1.0 4.0 0.00 0.20 0.00 62 1025.2
20181114045903 28 286 1.0 3.0 0.00 0.31 0.04 62 1025.1
20181114045337 29 287 1.0 3.0 0.00 0.31 0.04 62 1025.1
20181114044819 29 287 1.0 3.0 0.00 0.31 0.04 63 1025.1
20181114044412 29 287 0.0 3.0 0.00 0.31 0.04 63 1024.9
20181114043836 29 287 2.0 4.0 0.00 0.31 0.04 63 1024.8
20181114043343 29 287 0.0 4.0 0.00 0.31 0.04 64 1024.7
20181114042830 29 292 1.0 4.0 0.00 0.31 0.04 64 1024.6
20181114042353 29 292 2.0 3.0 0.00 0.31 0.04 64 1024.5
20181114041834 29 292 0.0 4.0 0.00 0.31 0.04 65 1024.5
20181114041407 29 294 1.0 4.0 0.00 0.31 0.04 65 1024.5
20181114040838 29 294 0.0 4.0 0.00 0.31 0.04 66 1024.4
20181114040418 29 294 2.0 4.0 0.00 0.31 0.04 67 1024.3
20181114035844 29 294 1.0 3.0 0.00 0.31 0.04 68 1024.3
20181114035318 29 297 0.0 2.0 0.00 0.31 0.04 69 1024.3
20181114034851 29 297 0.0 1.0 0.00 0.31 0.04 69 1024.2
20181114034335 29 297 0.0 2.0 0.00 0.31 0.04 68 1024.2
20181114033824 29 297 0.0 1.0 0.00 0.31 0.04 69 1024.1
20181114033349 29 297 0.0 3.0 0.00 0.31 0.04 68 1024.1
20181114032913 29 297 0.0 3.0 0.00 0.31 0.04 68 1024.1
20181114032344 29 296 1.0 3.0 0.00 0.31 0.04 67 1024.0
20181114031847 29 297 0.0 2.0 0.00 0.31 0.04 66 1024.0
20181114031412 29 296 0.0 3.0 0.00 0.31 0.04 65 1024.0
20181114030841 29 297 2.0 5.0 0.00 0.31 0.04 65 1023.9
20181114030414 29 297 1.0 5.0 0.00 0.31 0.04 65 1023.7
20181114025856 29 286 1.0 3.0 0.00 0.31 0.04 65 1023.8
20181114025328 29 286 1.0 3.0 0.00 0.31 0.04 65 1023.7
20181114024853 29 286 1.0 3.0 0.00 0.31 0.04 65 1023.7
20181114024344 29 288 1.0 4.0 0.00 0.31 0.04 65 1023.7
20181114023909 30 287 1.0 4.0 0.00 0.31 0.04 65 1023.6
20181114023334 30 287 0.0 4.0 0.00 0.31 0.04 65 1023.5
20181114022906 30 287 1.0 4.0 0.00 0.31 0.04 65 1023.5
20181114022334 30 315 0.0 3.0 0.00 0.31 0.04 66 1023.4
20181114021858 30 315 1.0 4.0 0.00 0.31 0.04 65 1023.3
20181114021330 30 315 2.0 4.0 0.00 0.31 0.04 66 1023.3
20181114020911 30 315 1.0 7.0 0.00 0.31 0.04 67 1023.1
20181114020343 30 316 2.0 7.0 0.00 0.31 0.04 68 1023.0
20181114015907 30 268 0.0 4.0 0.00 0.31 0.04 71 1023.1
20181114015359 30 275 1.0 3.0 0.00 0.31 0.04 73 1023.0
20181114014843 30 275 1.0 3.0 0.00 0.31 0.04 76 1022.9
20181114014319 29 275 1.0 2.0 0.00 0.31 0.04 78 1022.9
20181114013846 29 275 0.0 3.0 0.00 0.31 0.04 79 1022.8
20181114013407 29 275 0.0 3.0 0.00 0.31 0.04 79 1022.8
20181114012855 29 277 0.0 2.0 0.00 0.31 0.04 79 1022.8
20181114012345 29 277 0.0 3.0 0.00 0.31 0.04 79 1022.8
20181114011827 30 277 1.0 3.0 0.00 0.31 0.04 79 1022.8
20181114011408 30 276 1.0 4.0 0.00 0.31 0.04 78 1022.8
20181114010833 31 276 2.0 4.0 0.00 0.31 0.04 74 1022.8
20181114010357 31 272 1.0 3.0 0.00 0.31 0.04 73 1022.7
20181114005849 31 259 1.0 6.0 0.00 0.31 0.04 74 1022.7
20181114004818 31 236 2.0 4.0 0.00 0.31 0.04 73 1022.7
20181114004344 31 234 0.0 4.0 0.00 0.31 0.04 74 1022.6
20181114003914 31 234 1.0 4.0 0.00 0.31 0.04 73 1022.5
20181114003339 31 236 0.0 2.0 0.00 0.31 0.04 72 1022.4
20181114002828 31 236 0.0 2.0 0.00 0.31 0.04 72 1022.4
20181114002354 31 236 0.0 3.0 0.00 0.31 0.04 72 1022.4
20181114001819 32 236 1.0 6.0 0.00 0.31 0.04 72 1022.4
20181114001409 32 236 1.0 6.0 0.00 0.31 0.04 72 1022.4
20181114000835 32 233 1.0 3.0 0.00 0.31 0.04 72 1022.3
20181114000407 32 232 0.0 3.0 0.00 0.31 0.04 72 1022.2
20181113235848 32 232 1.0 3.0 0.00 0.31 0.04 73 1022.2
20181113235322 31 232 1.0 3.0 0.00 0.31 0.04 73 1022.1
20181113234847 31 232 0.0 2.0 0.00 0.31 0.04 74 1022.0
20181113234411 31 232 1.0 2.0 0.00 0.31 0.04 75 1022.0
20181113233843 31 232 0.0 1.0 0.00 0.31 0.04 75 1021.9
20181113233348 31 232 0.0 1.0 0.00 0.31 0.04 75 1021.9
20181113232831 31 232 0.0 2.0 0.00 0.31 0.04 76 1021.9
20181113232320 31 232 1.0 3.0 0.00 0.31 0.04 76 1021.9
20181113231846 32 232 0.0 5.0 0.00 0.31 0.04 75 1021.8
20181113231322 32 228 1.0 5.0 0.00 0.31 0.04 74 1021.8
20181113230843 33 232 1.0 6.0 0.00 0.31 0.04 72 1021.7
20181113230408 33 232 1.0 6.0 0.00 0.31 0.04 69 1021.6
20181113225910 33 288 1.0 4.0 0.00 0.31 0.04 66 1021.2
20181113225343 33 288 2.0 4.0 0.00 0.31 0.04 65 1021.1
20181113224907 33 252 0.0 3.0 0.00 0.31 0.04 64 1021.3
20181113224355 33 252 0.0 3.0 0.00 0.31 0.04 64 1021.3
20181113223820 33 252 2.0 3.0 0.00 0.31 0.04 64 1021.3
20181113223412 33 248 1.0 4.0 0.00 0.31 0.04 64 1021.0
20181113222838 33 256 0.0 3.0 0.00 0.31 0.04 64 1021.0
20181113222405 33 256 1.0 3.0 0.00 0.31 0.04 64 1020.8
20181113221835 33 256 1.0 4.0 0.00 0.31 0.04 64 1020.8
20181113221320 33 256 1.0 3.0 0.00 0.31 0.04 63 1020.7
20181113220852 34 256 1.0 3.0 0.00 0.31 0.04 63 1020.6
20181113220337 34 256 1.0 4.0 0.00 0.31 0.04 63 1020.6